Time;durP1;ratioP1;P1;durP2;ratioP2;P2;SDS_P1;SDS_P2;PMS_P1;PMS_P2;Temp;Humidity;BMP_temperature;BMP_pressure;BME280_temperature;BME280_humidity;BME280_pressure;Samples;Min_cycle;Max_cycle;Signal;HPM_P1;HPM_P2
2022/04/22 00:00:22;;;;;;;5.43;3.10;;;;;;;7.51;74.00;101468.50;5050914;28;20229;-69
2022/04/22 00:02:47;;;;;;;3.23;2.60;;;;;;;7.44;74.56;101474.13;5049465;28;20217;-68
2022/04/22 00:05:13;;;;;;;3.83;2.80;;;;;;;7.43;73.82;101475.84;5050900;28;20267;-68
2022/04/22 00:07:38;;;;;;;6.07;3.27;;;;;;;7.33;74.57;101473.69;5051228;28;20209;-68
2022/04/22 00:10:05;;;;;;;4.87;2.90;;;;;;;7.30;75.14;101457.41;5051429;28;20193;-68
2022/04/22 00:12:30;;;;;;;4.03;2.90;;;;;;;7.27;74.54;101470.88;5050847;28;20316;-68
2022/04/22 00:14:56;;;;;;;6.60;2.83;;;;;;;7.18;74.68;101462.84;5051653;28;20286;-68
2022/04/22 00:17:21;;;;;;;3.77;2.80;;;;;;;7.16;75.31;101464.47;5049505;28;20281;-68
2022/04/22 00:19:46;;;;;;;6.30;3.00;;;;;;;7.11;75.68;101457.44;5050475;28;20276;-68
2022/04/22 00:22:12;;;;;;;5.93;3.40;;;;;;;7.06;75.83;101457.25;5050548;28;20838;-68
2022/04/22 00:24:37;;;;;;;4.53;3.23;;;;;;;7.08;75.58;101459.84;5050909;28;20181;-68
2022/04/22 00:27:02;;;;;;;5.03;3.30;;;;;;;7.04;76.54;101455.44;5050654;28;20201;-68
2022/04/22 00:29:28;;;;;;;4.93;3.20;;;;;;;6.98;75.73;101453.50;5072740;28;20546;-68
2022/04/22 00:31:53;;;;;;;5.53;3.27;;;;;;;7.00;76.91;101451.03;5069125;28;20212;-68
2022/04/22 00:34:19;;;;;;;5.27;3.43;;;;;;;6.96;76.25;101454.25;5070109;28;20247;-68
2022/04/22 00:36:44;;;;;;;5.30;3.73;;;;;;;6.96;77.43;101444.06;5054849;28;20209;-68
2022/04/22 00:39:10;;;;;;;7.27;4.00;;;;;;;6.87;76.96;101446.22;5049098;28;20671;-68
2022/04/22 00:41:35;;;;;;;7.03;3.63;;;;;;;6.87;77.68;101441.97;5049285;28;20205;-68
2022/04/22 00:44:00;;;;;;;6.63;3.90;;;;;;;6.86;77.77;101447.88;5049814;28;20620;-68
2022/04/22 00:46:26;;;;;;;6.10;3.87;;;;;;;6.77;77.74;101439.81;5049178;28;20214;-68
2022/04/22 00:48:51;;;;;;;4.83;3.60;;;;;;;6.77;78.47;101446.63;5050355;28;20186;-68
2022/04/22 00:51:18;;;;;;;5.50;4.27;;;;;;;6.70;78.26;101440.38;5049584;28;20229;-68
2022/04/22 00:53:46;;;;;;;7.83;3.87;;;;;;;6.69;79.25;101433.56;5052416;28;20281;-68
2022/04/22 00:56:12;;;;;;;7.67;4.13;;;;;;;6.62;79.36;101434.06;5048340;28;20288;-68
2022/04/22 00:58:43;;;;;;;6.53;4.07;;;;;;;6.66;80.16;101433.41;5048892;28;20232;-68
2022/04/22 01:01:09;;;;;;;5.70;4.07;;;;;;;6.63;80.27;101424.78;5053529;28;20264;-68
2022/04/22 01:03:34;;;;;;;7.87;4.00;;;;;;;6.61;80.59;101429.78;5052035;28;20277;-68
2022/04/22 01:11:34;;;;;;;7.37;4.60;;;;;;;6.57;82.08;101425.38;5050503;28;20571;-68
2022/04/22 01:13:59;;;;;;;8.03;4.77;;;;;;;6.54;81.59;101414.19;5046516;28;20177;-68
2022/04/22 01:16:25;;;;;;;10.70;5.33;;;;;;;6.57;82.33;101412.66;5049157;28;20919;-68
2022/04/22 01:18:51;;;;;;;7.27;5.10;;;;;;;6.52;82.35;101413.25;5049934;28;20278;-68
2022/04/22 01:21:17;;;;;;;8.53;5.07;;;;;;;6.54;82.93;101409.97;5048516;28;20190;-68
2022/04/22 01:23:42;;;;;;;7.70;5.03;;;;;;;6.53;83.01;101408.22;5051320;28;20822;-68
2022/04/22 01:26:08;;;;;;;8.10;4.87;;;;;;;6.49;82.81;101406.34;5047326;28;20233;-68
2022/04/22 01:28:34;;;;;;;6.53;5.03;;;;;;;6.51;82.97;101398.78;5047412;28;20193;-68
2022/04/22 01:31:00;;;;;;;10.40;4.93;;;;;;;6.50;83.11;101402.13;5049371;28;20181;-68
2022/04/22 01:33:25;;;;;;;8.10;5.57;;;;;;;6.50;82.88;101395.34;5048577;28;20220;-68
2022/04/22 01:35:51;;;;;;;10.33;4.80;;;;;;;6.43;83.40;101395.91;5048790;28;20209;-67
2022/04/22 01:38:16;;;;;;;9.70;4.77;;;;;;;6.43;83.13;101390.81;5050953;28;20197;-68
2022/04/22 01:40:41;;;;;;;10.33;4.97;;;;;;;6.41;83.11;101394.94;5046222;28;20264;-68
2022/04/22 01:43:08;;;;;;;9.83;4.90;;;;;;;6.39;83.01;101393.16;5047878;28;20284;-68
2022/04/22 01:45:34;;;;;;;8.60;4.97;;;;;;;6.33;82.86;101385.25;5049770;28;20263;-68
2022/04/22 01:47:59;;;;;;;8.00;4.87;;;;;;;6.34;83.62;101392.06;5041476;28;20193;-68
2022/04/22 01:50:24;;;;;;;7.77;4.90;;;;;;;6.31;83.47;101387.72;5047256;28;20190;-68
2022/04/22 01:52:50;;;;;;;7.67;5.20;;;;;;;6.30;83.73;101383.44;5047568;28;20729;-68
2022/04/22 01:55:15;;;;;;;8.87;4.77;;;;;;;6.27;83.64;101383.28;5047855;28;20213;-68
2022/04/22 01:57:41;;;;;;;8.83;4.87;;;;;;;6.25;84.33;101378.94;5047115;28;20667;-68
2022/04/22 02:00:07;;;;;;;10.13;5.47;;;;;;;6.24;84.88;101375.56;5048145;28;20589;-67
2022/04/22 02:02:33;;;;;;;9.13;4.80;;;;;;;6.27;84.79;101369.72;5049088;28;20194;-67
2022/04/22 02:04:58;;;;;;;8.03;5.10;;;;;;;6.25;84.32;101371.31;5046040;28;20911;-68
2022/04/22 02:07:23;;;;;;;9.07;5.30;;;;;;;6.22;85.11;101368.66;5048257;28;20197;-68
2022/04/22 02:09:49;;;;;;;6.60;5.47;;;;;;;6.20;85.54;101363.50;5047605;28;20189;-68
2022/04/22 02:12:14;;;;;;;11.73;5.80;;;;;;;6.20;85.67;101362.63;5051461;28;20303;-68
2022/04/22 02:14:40;;;;;;;9.63;5.30;;;;;;;6.15;85.55;101359.88;5048626;28;20185;-68
2022/04/22 02:17:05;;;;;;;9.03;5.23;;;;;;;6.17;85.55;101357.41;5048473;28;20244;-68
2022/04/22 02:19:30;;;;;;;9.60;5.23;;;;;;;6.17;85.58;101360.81;5049541;28;20320;-68
2022/04/22 02:21:56;;;;;;;7.23;4.87;;;;;;;6.15;85.34;101357.34;5046909;28;20186;-68
2022/04/22 02:24:21;;;;;;;8.73;5.20;;;;;;;6.13;85.64;101355.53;5048776;28;20572;-68
2022/04/22 02:29:30;;;;;;;9.97;5.40;;;;;;;6.09;85.83;101349.44;5049318;28;20659;-70
2022/04/22 02:31:55;;;;;;;9.23;5.70;;;;;;;6.09;86.01;101346.03;5047229;28;20275;-68
2022/04/22 02:34:21;;;;;;;10.40;5.90;;;;;;;6.07;86.04;101345.94;5047199;28;20193;-68
2022/04/22 02:36:48;;;;;;;7.17;5.10;;;;;;;6.04;85.82;101353.44;5063731;28;20583;-68
2022/04/22 02:39:14;;;;;;;14.37;5.27;;;;;;;6.02;86.17;101346.53;5056356;28;20827;-68
2022/04/22 02:47:07;;;;;;;7.20;4.80;;;;;;;5.96;86.20;101348.81;5051988;28;20201;-68
2022/04/22 02:49:33;;;;;;;7.37;4.83;;;;;;;5.95;86.60;101337.75;5056605;28;20193;-67
2022/04/22 02:51:58;;;;;;;6.90;4.70;;;;;;;5.90;86.70;101341.75;5052226;28;20214;-68
2022/04/22 02:54:23;;;;;;;8.60;5.30;;;;;;;5.90;86.72;101339.22;5053024;28;20206;-67
2022/04/22 02:56:52;;;;;;;8.80;5.07;;;;;;;5.91;87.10;101346.06;5050950;28;20202;-68
2022/04/22 02:59:20;;;;;;;7.80;5.10;;;;;;;5.89;86.28;101341.72;5032026;28;20201;-68
2022/04/22 03:01:46;;;;;;;8.13;5.13;;;;;;;5.89;86.97;101342.56;5040055;28;20276;-68
2022/04/22 03:04:12;;;;;;;10.40;5.13;;;;;;;5.85;86.82;101345.78;5053630;28;20200;-68
2022/04/22 03:06:38;;;;;;;8.03;5.17;;;;;;;5.84;86.87;101344.03;5051610;28;20247;-67
2022/04/22 03:09:06;;;;;;;9.10;5.30;;;;;;;5.87;86.75;101348.38;5055172;28;20840;-68
2022/04/22 03:11:32;;;;;;;8.43;4.63;;;;;;;5.83;87.22;101351.59;5053277;28;20221;-67
2022/04/22 03:13:58;;;;;;;6.53;4.60;;;;;;;5.80;86.46;101357.38;5050513;28;20193;-68
2022/04/22 03:16:25;;;;;;;9.63;5.40;;;;;;;5.80;86.20;101349.78;5053791;28;20216;-68
2022/04/22 03:18:50;;;;;;;10.30;5.57;;;;;;;5.79;86.74;101349.66;5050752;28;20593;-68
2022/04/22 03:21:16;;;;;;;11.80;4.93;;;;;;;5.78;86.49;101345.38;5050344;28;20194;-68
2022/04/22 03:23:41;;;;;;;7.67;4.70;;;;;;;5.73;86.92;101347.72;5052884;28;20280;-67
2022/04/22 03:26:07;;;;;;;8.17;4.50;;;;;;;5.74;86.63;101343.50;5051382;28;20209;-68
2022/04/22 03:28:32;;;;;;;9.87;5.40;;;;;;;5.70;87.09;101334.00;5056095;28;20654;-68
2022/04/22 03:30:58;;;;;;;8.93;5.07;;;;;;;5.68;87.14;101333.06;5052106;28;20190;-68
2022/04/22 03:33:23;;;;;;;12.00;5.63;;;;;;;5.64;86.95;101336.25;5052071;28;20749;-68
2022/04/22 03:35:52;;;;;;;9.30;4.90;;;;;;;5.61;86.87;101336.97;5054768;28;20213;-68
2022/04/22 03:38:21;;;;;;;7.70;5.23;;;;;;;5.59;87.13;101333.50;5049040;28;20198;-68
2022/04/22 03:40:48;;;;;;;7.27;4.90;;;;;;;5.58;87.29;101319.06;5051471;28;20196;-68
2022/04/22 03:43:14;;;;;;;10.30;5.10;;;;;;;5.57;86.76;101322.41;5054675;28;20754;-67
2022/04/22 03:45:39;;;;;;;8.37;5.20;;;;;;;5.55;87.22;101312.97;5050855;28;20544;-68
2022/04/22 03:48:06;;;;;;;12.53;7.37;;;;;;;5.59;87.48;101318.28;5056972;28;20285;-68
2022/04/22 03:50:32;;;;;;;8.07;6.30;;;;;;;5.57;87.40;101316.47;5050699;28;20198;-68
2022/04/22 03:52:57;;;;;;;10.63;5.43;;;;;;;5.53;87.37;101306.97;5050745;28;20214;-68
2022/04/22 03:55:23;;;;;;;11.97;7.73;;;;;;;5.51;87.18;101311.09;5049615;28;20228;-68
2022/04/22 04:00:32;;;;;;;10.33;5.13;;;;;;;5.50;87.55;101311.88;5039771;28;20194;-68
2022/04/22 04:02:58;;;;;;;10.63;5.03;;;;;;;5.49;87.10;101312.69;5049211;28;20184;-68
2022/04/22 04:05:23;;;;;;;9.87;5.40;;;;;;;5.46;87.55;101310.88;5050620;28;20219;-68
2022/04/22 04:07:48;;;;;;;8.10;5.20;;;;;;;5.43;87.43;101313.25;5050056;28;20197;-68
2022/04/22 04:16:00;;;;;;;9.43;5.13;;;;;;;5.43;87.53;101313.25;5048785;28;20206;-68
2022/04/22 04:18:27;;;;;;;9.33;4.80;;;;;;;5.43;87.46;101314.97;5049545;28;20288;-68
2022/04/22 04:23:37;;;;;;;8.93;5.93;;;;;;;5.48;87.51;101316.03;5061910;28;20239;-68
2022/04/22 04:26:03;;;;;;;7.50;5.80;;;;;;;5.46;87.43;101304.91;5070585;28;20573;-68
2022/04/22 04:28:28;;;;;;;9.23;4.80;;;;;;;5.49;87.59;101310.16;5051897;28;20185;-68
2022/04/22 04:30:55;;;;;;;10.20;5.23;;;;;;;5.49;87.65;101303.41;5050583;28;20190;-68
2022/04/22 04:33:21;;;;;;;9.77;5.10;;;;;;;5.49;87.73;101302.53;5048140;28;20189;-68
2022/04/22 04:35:50;;;;;;;9.73;5.50;;;;;;;5.44;87.73;101307.38;5050416;28;20289;-68
2022/04/22 04:38:16;;;;;;;10.00;5.53;;;;;;;5.48;88.12;101310.97;5050710;28;20182;-68
2022/04/22 04:40:42;;;;;;;10.87;5.60;;;;;;;5.50;88.44;101297.53;5050432;28;20177;-68
2022/04/22 04:43:07;;;;;;;11.23;6.93;;;;;;;5.52;88.82;101302.69;5050902;28;20697;-68
2022/04/22 04:45:34;;;;;;;11.30;6.30;;;;;;;5.57;88.93;101304.63;5050177;28;20210;-68
2022/04/22 04:47:59;;;;;;;8.70;5.27;;;;;;;5.66;88.19;101305.03;5049307;28;20789;-68
2022/04/22 04:50:25;;;;;;;10.60;5.70;;;;;;;5.72;87.94;101301.94;5048348;28;20265;-68
2022/04/22 04:52:50;;;;;;;10.30;5.60;;;;;;;5.74;88.16;101301.19;5049149;28;20860;-68
2022/04/22 04:55:16;;;;;;;10.33;5.20;;;;;;;5.80;88.33;101296.41;5049091;28;20222;-68
2022/04/22 04:57:45;;;;;;;10.63;5.17;;;;;;;5.86;87.98;101301.78;5049094;28;20189;-68
2022/04/22 05:00:12;;;;;;;9.10;5.43;;;;;;;5.89;88.30;101294.28;5050075;28;20562;-68
2022/04/22 05:02:38;;;;;;;8.47;5.30;;;;;;;5.95;87.98;101302.19;5049655;28;20587;-68
2022/04/22 05:05:05;;;;;;;11.07;5.57;;;;;;;6.01;87.73;101296.50;5049967;28;20189;-68
2022/04/22 05:07:34;;;;;;;8.17;5.17;;;;;;;6.08;87.61;101303.63;5048688;28;20352;-68
2022/04/22 05:09:59;;;;;;;9.17;5.70;;;;;;;6.15;87.94;101295.44;5049873;28;20189;-68
2022/04/22 05:12:24;;;;;;;9.60;5.50;;;;;;;6.24;87.69;101295.84;5049145;28;20209;-68
2022/04/22 05:14:50;;;;;;;10.00;6.03;;;;;;;6.34;87.40;101287.81;5049848;28;20270;-68
2022/04/22 05:17:15;;;;;;;8.17;5.17;;;;;;;6.45;86.80;101289.16;5049788;28;20213;-68
2022/04/22 05:19:41;;;;;;;12.93;5.53;;;;;;;6.56;86.78;101286.28;5048983;28;20190;-68
2022/04/22 05:22:06;;;;;;;10.53;5.47;;;;;;;6.62;86.06;101281.44;5049920;28;20240;-68
2022/04/22 05:24:32;;;;;;;10.27;5.47;;;;;;;6.74;86.29;101284.50;5048702;28;20195;-68
2022/04/22 05:26:59;;;;;;;8.57;5.50;;;;;;;6.88;85.47;101280.84;5049557;28;20205;-68
2022/04/22 05:34:52;;;;;;;10.97;5.77;;;;;;;7.24;84.46;101286.53;5049262;28;20174;-68
2022/04/22 05:37:18;;;;;;;12.03;7.10;;;;;;;7.29;83.61;101292.69;5049443;28;20185;-68
2022/04/22 05:39:43;;;;;;;22.23;14.40;;;;;;;7.43;84.50;101294.97;5049555;28;20248;-68
2022/04/22 05:42:09;;;;;;;13.87;7.33;;;;;;;7.55;83.84;101295.41;5048262;28;20194;-68
2022/04/22 05:44:35;;;;;;;10.10;5.20;;;;;;;7.73;83.08;101296.13;5048012;28;20280;-68
2022/04/22 05:47:00;;;;;;;11.80;6.53;;;;;;;7.80;82.81;101292.13;5048810;28;20214;-68
2022/04/22 05:49:27;;;;;;;10.50;5.97;;;;;;;7.94;81.54;101290.94;5049467;28;20788;-68
2022/04/22 05:51:53;;;;;;;9.70;5.47;;;;;;;8.08;80.80;101290.66;5048824;28;20214;-68
2022/04/22 05:54:18;;;;;;;10.17;5.13;;;;;;;8.19;81.05;101288.47;5049302;28;20189;-68
2022/04/22 05:56:44;;;;;;;12.00;6.80;;;;;;;8.15;80.82;101284.94;5048906;28;20198;-68
2022/04/22 05:59:09;;;;;;;10.43;5.93;;;;;;;8.29;80.73;101281.22;5048144;28;20259;-68
2022/04/22 06:01:35;;;;;;;10.10;5.53;;;;;;;8.43;80.13;101274.09;5049697;28;20185;-69
2022/04/22 06:04:00;;;;;;;11.47;5.70;;;;;;;8.54;80.47;101283.84;5064488;28;20196;-69
2022/04/22 06:06:25;;;;;;;9.80;5.33;;;;;;;8.74;78.92;101277.72;5049227;28;20209;-68
2022/04/22 06:11:34;;;;;;;10.93;5.33;;;;;;;8.95;78.18;101277.56;5053119;28;20217;-68
2022/04/22 06:14:00;;;;;;;11.87;5.63;;;;;;;9.07;77.84;101280.53;5051405;28;20204;-67
2022/04/22 06:16:25;;;;;;;13.13;6.17;;;;;;;9.25;76.49;101283.63;5052520;28;20328;-67
2022/04/22 06:18:50;;;;;;;8.00;5.50;;;;;;;9.39;76.37;101285.81;5053109;28;20276;-68
2022/04/22 06:21:16;;;;;;;10.27;6.30;;;;;;;9.43;75.98;101289.31;5051523;28;20201;-68
2022/04/22 06:23:41;;;;;;;10.20;6.37;;;;;;;9.66;75.78;101288.31;5053321;28;20181;-67
2022/04/22 06:26:06;;;;;;;13.07;5.60;;;;;;;9.65;75.93;101277.25;5067751;28;20206;-68
2022/04/22 06:28:33;;;;;;;9.90;5.50;;;;;;;9.72;74.59;101276.59;5052989;28;20193;-67
2022/04/22 06:30:59;;;;;;;10.13;4.80;;;;;;;9.89;73.90;101265.19;5053016;28;20820;-67
2022/04/22 06:33:25;;;;;;;7.77;5.13;;;;;;;9.87;74.00;101269.34;5052213;28;20193;-68
2022/04/22 06:35:50;;;;;;;8.77;5.30;;;;;;;9.98;73.81;101260.31;5067837;28;20209;-67
2022/04/22 06:38:17;;;;;;;11.20;5.37;;;;;;;10.05;73.85;101266.50;5052625;28;20200;-67
2022/04/22 06:46:12;;;;;;;8.73;5.27;;;;;;;10.51;71.86;101259.25;5052453;28;20213;-68
2022/04/22 06:48:38;;;;;;;8.90;5.33;;;;;;;10.55;70.54;101259.38;5067700;28;20328;-68
2022/04/22 06:51:07;;;;;;;10.37;5.37;;;;;;;10.55;70.22;101254.25;5052053;28;20288;-67
2022/04/22 06:53:34;;;;;;;11.80;5.37;;;;;;;10.69;69.81;101265.69;5052344;28;20805;-67
2022/04/22 06:56:02;;;;;;;9.63;5.70;;;;;;;10.92;70.00;101273.97;5052391;28;20212;-68
2022/04/22 06:58:30;;;;;;;7.77;4.97;;;;;;;11.19;69.25;101260.13;5052026;28;20323;-68
2022/04/22 07:00:55;;;;;;;9.37;4.90;;;;;;;11.25;68.23;101256.84;5052284;28;20205;-68
2022/04/22 07:03:21;;;;;;;9.43;5.10;;;;;;;11.26;67.76;101266.25;5052456;28;20275;-68
2022/04/22 07:05:48;;;;;;;8.40;5.10;;;;;;;11.35;67.74;101264.78;5051735;28;20220;-67
2022/04/22 07:08:14;;;;;;;7.97;4.70;;;;;;;11.54;66.75;101254.09;5051433;28;20209;-68
2022/04/22 07:10:43;;;;;;;9.27;5.27;;;;;;;11.66;66.02;101248.41;5051579;28;20593;-68
2022/04/22 07:13:10;;;;;;;9.67;5.63;;;;;;;11.72;65.37;101257.09;5052089;28;20289;-67
2022/04/22 07:15:36;;;;;;;11.23;5.40;;;;;;;11.88;66.30;101255.69;5051636;28;20220;-68
2022/04/22 07:18:02;;;;;;;8.37;5.17;;;;;;;12.08;64.96;101257.00;5051910;28;20186;-68
2022/04/22 07:20:28;;;;;;;10.97;5.50;;;;;;;12.11;64.45;101262.16;5051563;28;20273;-68
2022/04/22 07:22:54;;;;;;;10.70;5.00;;;;;;;12.34;63.09;101258.34;5050920;28;20186;-68
2022/04/22 07:25:20;;;;;;;7.43;4.87;;;;;;;12.57;63.56;101269.91;5051080;28;20290;-68
2022/04/22 07:27:46;;;;;;;7.00;4.73;;;;;;;12.69;62.64;101262.41;5051317;28;20533;-68
2022/04/22 07:30:14;;;;;;;9.50;4.93;;;;;;;12.73;62.32;101253.94;5051835;28;20193;-68
2022/04/22 07:32:39;;;;;;;8.37;4.73;;;;;;;12.78;63.53;101262.56;5050024;28;20213;-68
2022/04/22 07:35:08;;;;;;;11.10;5.00;;;;;;;13.22;61.90;101248.75;5051620;28;20185;-68
2022/04/22 07:37:34;;;;;;;7.70;4.57;;;;;;;13.25;61.41;101243.66;5051147;28;20236;-68
2022/04/22 07:39:59;;;;;;;9.10;5.30;;;;;;;13.35;60.65;101253.25;5051696;28;20601;-68
2022/04/22 07:42:26;;;;;;;10.33;5.07;;;;;;;13.59;59.75;101245.00;5050915;28;20193;-68
2022/04/22 07:47:38;;;;;;;9.00;5.00;;;;;;;13.93;59.36;101240.31;5051288;28;20190;-68
2022/04/22 07:50:05;;;;;;;10.60;5.50;;;;;;;14.12;57.96;101236.22;5050983;28;20264;-68
2022/04/22 07:52:32;;;;;;;9.43;5.53;;;;;;;14.16;57.88;101240.56;5051331;28;20653;-68
2022/04/22 07:54:58;;;;;;;9.73;5.00;;;;;;;14.31;57.43;101240.81;5050312;28;20174;-68
2022/04/22 07:57:23;;;;;;;6.37;4.40;;;;;;;14.27;57.61;101239.03;5048756;28;20712;-68
2022/04/22 07:59:49;;;;;;;10.87;6.10;;;;;;;14.55;56.89;101235.88;5050707;28;20726;-68
2022/04/22 08:02:15;;;;;;;10.23;5.10;;;;;;;14.85;55.84;101231.88;5051163;28;20741;-68
2022/04/22 08:04:41;;;;;;;8.37;5.03;;;;;;;14.70;54.66;101238.59;5051410;28;20204;-68
2022/04/22 08:07:07;;;;;;;6.03;4.80;;;;;;;14.99;54.43;101230.25;5050602;28;20205;-70
2022/04/22 08:09:33;;;;;;;7.20;4.50;;;;;;;15.27;53.83;101236.47;5050075;28;20272;-68
2022/04/22 08:11:58;;;;;;;8.37;4.90;;;;;;;14.94;54.31;101229.34;5049628;28;20359;-69
2022/04/22 08:14:25;;;;;;;8.00;4.80;;;;;;;15.20;53.67;101229.56;5050267;28;20197;-69
2022/04/22 08:16:50;;;;;;;7.00;4.60;;;;;;;15.65;53.39;101219.53;5054738;28;20212;-70
2022/04/22 08:19:16;;;;;;;12.53;6.73;;;;;;;15.76;52.69;101223.03;5051324;28;20659;-68
2022/04/22 08:21:41;;;;;;;5.73;4.57;;;;;;;15.88;52.66;101220.50;5051305;28;20560;-67
2022/04/22 08:24:10;;;;;;;8.73;4.90;;;;;;;16.02;52.28;101227.41;5050675;28;20185;-68
2022/04/22 08:26:36;;;;;;;8.67;6.03;;;;;;;16.17;52.47;101224.03;5051099;28;20293;-68
2022/04/22 08:29:02;;;;;;;10.07;4.60;;;;;;;16.15;51.55;101226.59;5050722;28;20190;-67
2022/04/22 08:31:28;;;;;;;12.73;7.33;;;;;;;16.25;52.00;101227.50;5048402;28;20226;-68
2022/04/22 08:33:56;;;;;;;7.47;5.53;;;;;;;16.54;50.71;101220.69;5031111;28;20236;-67
2022/04/22 08:36:22;;;;;;;6.77;4.60;;;;;;;16.55;50.28;101223.28;5058944;28;20236;-67
2022/04/22 08:38:47;;;;;;;7.33;5.20;;;;;;;16.50;50.36;101229.31;5050132;28;20196;-68
2022/04/22 08:41:13;;;;;;;10.60;4.47;;;;;;;16.83;49.84;101225.03;5059566;28;20600;-68
2022/04/22 08:43:39;;;;;;;9.67;4.90;;;;;;;17.29;51.11;101215.50;5070058;28;20197;-68
2022/04/22 08:49:58;;;;;;;8.13;4.93;;;;;;;17.17;49.32;101216.38;5069389;28;20216;-67
2022/04/22 08:51:37;;;;;;;8.43;4.80;;;;;;;17.65;48.33;101221.50;5051855;28;20727;-68
2022/04/22 08:54:04;;;;;;;7.33;5.30;;;;;;;17.67;47.77;101226.63;5062280;28;20177;-68
2022/04/22 08:56:29;;;;;;;8.83;4.53;;;;;;;17.58;47.53;101232.72;5069405;28;20201;-67
2022/04/22 08:58:55;;;;;;;7.07;4.83;;;;;;;17.49;47.93;101237.03;5070047;28;20713;-66
2022/04/22 09:01:20;;;;;;;6.10;4.57;;;;;;;17.85;47.53;101229.16;5066592;28;20189;-68
2022/04/22 09:03:46;;;;;;;7.67;4.50;;;;;;;17.99;47.38;101229.97;5049684;28;20190;-67
2022/04/22 09:06:11;;;;;;;7.10;4.53;;;;;;;18.10;47.04;101236.81;5048762;28;20204;-68
2022/04/22 09:08:37;;;;;;;8.77;4.70;;;;;;;18.61;47.16;101228.75;5060606;28;20274;-68
2022/04/22 09:11:03;;;;;;;9.83;4.80;;;;;;;18.26;46.68;101229.84;5056867;28;20198;-68
2022/04/22 09:13:32;;;;;;;7.20;4.27;;;;;;;18.54;46.50;101214.13;5050232;28;20186;-68
2022/04/22 09:15:59;;;;;;;8.50;5.67;;;;;;;18.26;46.87;101222.94;5054359;28;20735;-68
2022/04/22 09:18:26;;;;;;;6.67;4.73;;;;;;;18.48;45.76;101223.69;5069662;28;20271;-67
2022/04/22 09:20:54;;;;;;;7.60;4.60;;;;;;;18.31;45.94;101222.88;5068908;28;20195;-68
2022/04/22 09:23:34;;;;;;;8.83;5.03;;;;;;;18.13;46.88;101233.34;5058705;28;20252;-68
2022/04/22 09:26:01;;;;;;;10.27;5.20;;;;;;;18.44;47.26;101224.56;5059084;28;20889;-68
2022/04/22 09:28:27;;;;;;;7.37;4.57;;;;;;;18.50;46.92;101221.94;5049140;28;20190;-68
2022/04/22 09:31:04;;;;;;;9.97;5.17;;;;;;;18.69;46.49;101218.31;5048922;28;20248;-68
2022/04/22 09:33:41;;;;;;;7.20;4.87;;;;;;;18.76;45.55;101209.63;5049387;28;20186;-68
2022/04/22 09:44:24;;;;;;;7.90;5.07;;;;;;;19.59;44.46;101194.13;5068285;28;20197;-68
2022/04/22 09:47:09;;;;;;;8.73;5.27;;;;;;;19.53;44.45;101191.59;5069102;28;20662;-68
2022/04/22 09:49:45;;;;;;;8.60;5.40;;;;;;;19.37;45.63;101190.03;5068723;28;20823;-68
2022/04/22 09:52:10;;;;;;;7.53;5.17;;;;;;;19.51;44.66;101182.94;5069287;28;20205;-67
2022/04/22 09:54:38;;;;;;;10.97;4.80;;;;;;;19.79;44.52;101179.13;5068780;28;20192;-68
2022/04/22 09:57:04;;;;;;;7.07;4.87;;;;;;;19.33;44.73;101181.44;5060375;28;20217;-68
2022/04/22 09:59:32;;;;;;;7.97;4.63;;;;;;;18.87;45.92;101182.72;5047557;28;20612;-68
2022/04/22 10:01:58;;;;;;;8.93;4.70;;;;;;;18.69;44.65;101194.97;5049249;28;20590;-67
2022/04/22 10:04:23;;;;;;;8.77;4.73;;;;;;;18.49;44.92;101189.09;5049091;28;20272;-67
2022/04/22 10:06:50;;;;;;;8.13;4.27;;;;;;;18.69;45.04;101188.06;5046768;28;20821;-67
2022/04/22 10:09:17;;;;;;;6.77;4.67;;;;;;;18.74;45.16;101181.09;5048775;28;20271;-69
2022/04/22 10:11:48;;;;;;;7.77;4.27;;;;;;;18.66;43.86;101177.69;5047228;28;20256;-68
2022/04/22 10:14:19;;;;;;;9.40;4.80;;;;;;;18.75;44.47;101175.03;5040752;28;20580;-68
2022/04/22 10:16:44;;;;;;;7.07;4.30;;;;;;;18.73;44.59;101181.09;5054872;28;20291;-68
2022/04/22 10:19:10;;;;;;;9.20;4.73;;;;;;;18.24;44.42;101190.09;5069076;28;20207;-67
2022/04/22 10:21:37;;;;;;;7.17;4.13;;;;;;;18.07;44.92;101187.63;5074151;28;20185;-67
2022/04/22 10:24:03;;;;;;;7.00;4.37;;;;;;;18.35;44.10;101193.50;5047260;28;20250;-67
2022/04/22 10:26:29;;;;;;;6.73;4.10;;;;;;;18.35;43.48;101191.78;5047997;28;20300;-68
2022/04/22 10:28:56;;;;;;;5.00;3.97;;;;;;;18.41;43.76;101191.75;5046721;28;20225;-68
2022/04/22 10:31:23;;;;;;;8.00;4.00;;;;;;;18.61;44.75;101191.59;5078714;28;20965;-68
2022/04/22 10:33:48;;;;;;;6.97;3.57;;;;;;;18.95;43.04;101187.84;5066817;28;20185;-68
2022/04/22 10:36:18;;;;;;;6.37;3.87;;;;;;;18.48;43.63;101187.38;5068612;28;20589;-68
2022/04/22 10:38:48;;;;;;;7.47;4.10;;;;;;;18.21;44.66;101184.91;5067905;28;20641;-69
2022/04/22 10:41:16;;;;;;;5.53;4.00;;;;;;;18.05;45.17;101178.97;5068581;28;20192;-69
2022/04/22 10:43:42;;;;;;;5.37;4.00;;;;;;;18.08;44.92;101184.13;5067520;28;20196;-68
2022/04/22 10:49:10;;;;;;;6.40;4.50;;;;;;;17.84;45.44;101188.59;5054946;28;20225;-68
2022/04/22 10:52:09;;;;;;;9.23;4.47;;;;;;;17.65;47.33;101197.31;5032362;28;20245;-68
2022/04/22 10:54:52;;;;;;;7.60;4.37;;;;;;;17.35;46.46;101200.81;5028487;28;20213;-68
2022/04/22 10:57:29;;;;;;;5.73;4.03;;;;;;;17.39;46.62;101199.97;5029903;28;20261;-69
2022/04/22 11:00:08;;;;;;;6.60;4.20;;;;;;;17.26;47.54;101199.94;5031011;28;20228;-69
2022/04/22 11:02:36;;;;;;;6.67;3.87;;;;;;;17.11;48.62;101193.09;5031533;28;20190;-69
2022/04/22 11:05:19;;;;;;;7.43;4.30;;;;;;;17.17;48.36;101195.66;5031261;28;20190;-69
2022/04/22 11:07:50;;;;;;;8.10;5.13;;;;;;;16.90;48.90;101192.25;5041510;28;20186;-69
2022/04/22 11:10:17;;;;;;;10.60;4.63;;;;;;;16.70;48.68;101194.84;5051619;28;20212;-70
2022/04/22 11:12:59;;;;;;;7.70;4.80;;;;;;;16.60;49.47;101194.84;5051954;28;20205;-69
2022/04/22 11:15:43;;;;;;;7.17;3.80;;;;;;;16.71;49.62;101196.56;5051521;28;20228;-70
2022/04/22 11:18:12;;;;;;;8.20;4.70;;;;;;;16.84;48.76;101187.06;5042038;28;20182;-69
2022/04/22 11:20:45;;;;;;;8.03;4.77;;;;;;;17.08;48.44;101184.47;5041940;28;20255;-69
2022/04/22 11:23:14;;;;;;;6.97;4.43;;;;;;;16.69;49.66;101192.25;5033556;28;20202;-69
2022/04/22 11:25:41;;;;;;;6.10;4.40;;;;;;;16.46;50.21;101189.66;5031019;28;20213;-69
2022/04/22 11:28:08;;;;;;;10.90;4.77;;;;;;;16.67;51.59;101186.22;5031295;28;20316;-70
2022/04/22 11:30:34;;;;;;;13.13;4.57;;;;;;;16.74;50.66;101177.59;5031576;28;20186;-70
2022/04/22 11:33:21;;;;;;;6.90;4.43;;;;;;;16.89;50.29;101181.03;5030185;28;20680;-69
2022/04/22 11:35:50;;;;;;;5.53;4.13;;;;;;;17.16;50.84;101170.66;5012307;28;20214;-69
2022/04/22 11:38:16;;;;;;;6.43;4.03;;;;;;;17.99;49.57;101170.34;5012225;28;20183;-70
2022/04/22 11:40:44;;;;;;;6.20;3.90;;;;;;;18.81;45.77;101161.16;5047018;28;20605;-69
2022/04/22 11:43:11;;;;;;;7.40;3.87;;;;;;;18.72;45.84;101164.69;5031331;28;20199;-70
2022/04/22 11:45:44;;;;;;;7.40;3.97;;;;;;;19.33;44.66;101144.19;5031668;28;20218;-70
2022/04/22 11:48:11;;;;;;;5.83;4.07;;;;;;;19.30;44.13;101147.69;5031127;28;20190;-70
2022/04/22 11:50:39;;;;;;;5.40;3.67;;;;;;;19.99;43.52;101149.41;5031531;28;20581;-70
2022/04/22 11:53:14;;;;;;;5.90;3.60;;;;;;;20.24;43.66;101142.13;5031001;28;20221;-69
2022/04/22 11:55:41;;;;;;;5.83;3.63;;;;;;;19.80;44.32;101147.94;5030589;28;20213;-70
2022/04/22 11:58:07;;;;;;;5.03;3.53;;;;;;;19.71;44.60;101145.44;5030551;28;20185;-70
2022/04/22 12:06:00;;;;;;;5.67;3.30;;;;;;;20.13;43.31;101157.06;5033259;28;20305;-70
2022/04/22 12:08:25;;;;;;;6.77;3.40;;;;;;;19.99;44.34;101143.34;5035415;28;20277;-70
2022/04/22 12:10:51;;;;;;;6.07;3.27;;;;;;;19.83;43.57;101150.50;5030693;28;20190;-70
2022/04/22 12:13:17;;;;;;;4.20;3.40;;;;;;;19.64;44.59;101141.22;5030464;28;20222;-69
2022/04/22 12:15:48;;;;;;;5.53;3.83;;;;;;;19.27;45.38;101144.28;5030740;28;20213;-69
2022/04/22 12:18:30;;;;;;;6.37;3.57;;;;;;;19.15;45.28;101149.56;5031151;28;20186;-71
2022/04/22 12:20:56;;;;;;;7.60;4.30;;;;;;;18.97;47.18;101148.00;5030787;28;20198;-71
2022/04/22 12:23:22;;;;;;;6.40;4.20;;;;;;;19.06;45.97;101140.13;5031163;28;20189;-71
2022/04/22 12:25:57;;;;;;;6.40;4.23;;;;;;;19.20;46.76;101135.66;5029857;28;20640;-72